sensor_id;sensor_type;location;lat;lon;timestamp;P1;durP1;ratioP1;P2;durP2;ratioP2
1957;SDS011;979;51.076;13.748;2022-07-19T00:01:37;13.73;;;13.10;;
1957;SDS011;979;51.076;13.748;2022-07-19T00:04:06;15.20;;;14.60;;
1957;SDS011;979;51.076;13.748;2022-07-19T00:06:34;15.73;;;14.93;;
1957;SDS011;979;51.076;13.748;2022-07-19T00:09:02;16.17;;;15.27;;
1957;SDS011;979;51.076;13.748;2022-07-19T00:11:31;16.10;;;15.40;;
1957;SDS011;979;51.076;13.748;2022-07-19T00:14:00;15.50;;;14.80;;
1957;SDS011;979;51.076;13.748;2022-07-19T00:16:29;16.10;;;15.50;;
1957;SDS011;979;51.076;13.748;2022-07-19T00:21:59;16.17;;;15.57;;
1957;SDS011;979;51.076;13.748;2022-07-19T00:24:41;16.17;;;15.57;;
1957;SDS011;979;51.076;13.748;2022-07-19T00:27:12;16.40;;;15.60;;
1957;SDS011;979;51.076;13.748;2022-07-19T00:29:40;16.67;;;15.97;;
1957;SDS011;979;51.076;13.748;2022-07-19T00:32:09;16.73;;;16.03;;
1957;SDS011;979;51.076;13.748;2022-07-19T00:34:38;16.13;;;15.33;;
1957;SDS011;979;51.076;13.748;2022-07-19T00:37:06;16.27;;;15.50;;
1957;SDS011;979;51.076;13.748;2022-07-19T00:39:35;16.47;;;15.77;;
1957;SDS011;979;51.076;13.748;2022-07-19T00:42:03;16.33;;;15.60;;
1957;SDS011;979;51.076;13.748;2022-07-19T00:44:32;16.10;;;15.40;;
1957;SDS011;979;51.076;13.748;2022-07-19T00:47:00;15.90;;;15.37;;
1957;SDS011;979;51.076;13.748;2022-07-19T00:49:30;16.53;;;15.80;;
1957;SDS011;979;51.076;13.748;2022-07-19T00:51:59;16.10;;;15.40;;
1957;SDS011;979;51.076;13.748;2022-07-19T00:54:31;16.10;;;15.30;;
1957;SDS011;979;51.076;13.748;2022-07-19T00:57:02;16.07;;;15.47;;
1957;SDS011;979;51.076;13.748;2022-07-19T00:59:34;14.87;;;14.27;;
1957;SDS011;979;51.076;13.748;2022-07-19T01:02:02;16.83;;;15.83;;
1957;SDS011;979;51.076;13.748;2022-07-19T01:04:31;15.87;;;15.27;;
1957;SDS011;979;51.076;13.748;2022-07-19T01:07:01;16.60;;;15.57;;
1957;SDS011;979;51.076;13.748;2022-07-19T01:09:30;15.93;;;15.30;;
1957;SDS011;979;51.076;13.748;2022-07-19T01:12:01;15.93;;;15.33;;
1957;SDS011;979;51.076;13.748;2022-07-19T01:14:30;15.47;;;14.77;;
1957;SDS011;979;51.076;13.748;2022-07-19T01:17:01;15.20;;;14.60;;
1957;SDS011;979;51.076;13.748;2022-07-19T01:19:30;15.70;;;15.10;;
1957;SDS011;979;51.076;13.748;2022-07-19T01:22:00;15.50;;;14.80;;
1957;SDS011;979;51.076;13.748;2022-07-19T01:24:28;16.13;;;15.23;;
1957;SDS011;979;51.076;13.748;2022-07-19T01:26:57;15.90;;;15.30;;
1957;SDS011;979;51.076;13.748;2022-07-19T01:29:25;15.70;;;15.20;;
1957;SDS011;979;51.076;13.748;2022-07-19T01:31:53;16.90;;;16.00;;
1957;SDS011;979;51.076;13.748;2022-07-19T01:34:21;17.53;;;16.63;;
1957;SDS011;979;51.076;13.748;2022-07-19T01:36:50;17.37;;;16.57;;
1957;SDS011;979;51.076;13.748;2022-07-19T01:39:20;18.17;;;17.17;;
1957;SDS011;979;51.076;13.748;2022-07-19T01:41:48;17.57;;;16.77;;
1957;SDS011;979;51.076;13.748;2022-07-19T01:44:19;17.30;;;16.40;;
1957;SDS011;979;51.076;13.748;2022-07-19T01:46:47;17.10;;;16.10;;
1957;SDS011;979;51.076;13.748;2022-07-19T01:49:15;16.93;;;16.20;;
1957;SDS011;979;51.076;13.748;2022-07-19T01:51:44;17.03;;;16.23;;
1957;SDS011;979;51.076;13.748;2022-07-19T01:54:12;16.83;;;15.93;;
1957;SDS011;979;51.076;13.748;2022-07-19T01:56:42;15.40;;;14.70;;
1957;SDS011;979;51.076;13.748;2022-07-19T01:59:11;16.60;;;15.70;;
1957;SDS011;979;51.076;13.748;2022-07-19T02:01:39;17.47;;;16.47;;
1957;SDS011;979;51.076;13.748;2022-07-19T02:04:08;16.10;;;15.40;;
1957;SDS011;979;51.076;13.748;2022-07-19T02:06:37;16.53;;;15.73;;
1957;SDS011;979;51.076;13.748;2022-07-19T02:09:05;15.93;;;15.20;;
1957;SDS011;979;51.076;13.748;2022-07-19T02:11:36;16.23;;;15.43;;
1957;SDS011;979;51.076;13.748;2022-07-19T02:14:08;15.80;;;15.20;;
1957;SDS011;979;51.076;13.748;2022-07-19T02:16:36;15.50;;;14.80;;
1957;SDS011;979;51.076;13.748;2022-07-19T02:19:06;15.70;;;15.00;;
1957;SDS011;979;51.076;13.748;2022-07-19T02:21:35;16.47;;;15.77;;
1957;SDS011;979;51.076;13.748;2022-07-19T02:24:04;16.23;;;15.53;;
1957;SDS011;979;51.076;13.748;2022-07-19T02:26:36;16.33;;;15.53;;
1957;SDS011;979;51.076;13.748;2022-07-19T02:29:04;16.37;;;15.40;;
1957;SDS011;979;51.076;13.748;2022-07-19T02:31:34;14.30;;;13.80;;
1957;SDS011;979;51.076;13.748;2022-07-19T02:34:03;16.17;;;15.53;;
1957;SDS011;979;51.076;13.748;2022-07-19T02:36:32;15.80;;;15.20;;
1957;SDS011;979;51.076;13.748;2022-07-19T02:39:02;16.00;;;15.40;;
1957;SDS011;979;51.076;13.748;2022-07-19T02:41:31;15.90;;;15.30;;
1957;SDS011;979;51.076;13.748;2022-07-19T02:43:59;16.80;;;16.10;;
1957;SDS011;979;51.076;13.748;2022-07-19T02:46:27;15.70;;;15.10;;
1957;SDS011;979;51.076;13.748;2022-07-19T02:48:57;16.37;;;15.60;;
1957;SDS011;979;51.076;13.748;2022-07-19T02:51:25;18.20;;;16.93;;
1957;SDS011;979;51.076;13.748;2022-07-19T02:53:53;16.50;;;15.57;;
1957;SDS011;979;51.076;13.748;2022-07-19T02:56:22;16.33;;;15.43;;
1957;SDS011;979;51.076;13.748;2022-07-19T02:58:50;16.17;;;15.50;;
1957;SDS011;979;51.076;13.748;2022-07-19T03:01:18;15.77;;;15.00;;
1957;SDS011;979;51.076;13.748;2022-07-19T03:03:47;15.70;;;14.90;;
1957;SDS011;979;51.076;13.748;2022-07-19T03:06:18;15.63;;;14.80;;
1957;SDS011;979;51.076;13.748;2022-07-19T03:08:47;15.70;;;15.10;;
1957;SDS011;979;51.076;13.748;2022-07-19T03:11:15;16.23;;;15.53;;
1957;SDS011;979;51.076;13.748;2022-07-19T03:13:43;15.43;;;14.83;;
1957;SDS011;979;51.076;13.748;2022-07-19T03:16:11;14.00;;;13.40;;
1957;SDS011;979;51.076;13.748;2022-07-19T03:18:42;15.90;;;15.20;;
1957;SDS011;979;51.076;13.748;2022-07-19T03:21:11;16.30;;;15.77;;
1957;SDS011;979;51.076;13.748;2022-07-19T03:23:40;16.07;;;15.40;;
1957;SDS011;979;51.076;13.748;2022-07-19T03:26:09;16.07;;;15.47;;
1957;SDS011;979;51.076;13.748;2022-07-19T03:28:37;16.57;;;15.80;;
1957;SDS011;979;51.076;13.748;2022-07-19T03:31:07;16.07;;;15.30;;
1957;SDS011;979;51.076;13.748;2022-07-19T03:33:36;15.20;;;14.70;;
1957;SDS011;979;51.076;13.748;2022-07-19T03:36:04;17.07;;;16.27;;
1957;SDS011;979;51.076;13.748;2022-07-19T03:38:33;16.70;;;16.00;;
1957;SDS011;979;51.076;13.748;2022-07-19T03:41:02;16.63;;;15.83;;
1957;SDS011;979;51.076;13.748;2022-07-19T03:43:31;16.43;;;15.77;;
1957;SDS011;979;51.076;13.748;2022-07-19T03:45:59;15.80;;;15.20;;
1957;SDS011;979;51.076;13.748;2022-07-19T03:48:27;16.17;;;15.53;;
1957;SDS011;979;51.076;13.748;2022-07-19T03:50:56;16.57;;;15.40;;
1957;SDS011;979;51.076;13.748;2022-07-19T03:53:24;16.63;;;15.50;;
1957;SDS011;979;51.076;13.748;2022-07-19T03:55:52;15.20;;;14.50;;
1957;SDS011;979;51.076;13.748;2022-07-19T03:58:22;16.10;;;15.30;;
1957;SDS011;979;51.076;13.748;2022-07-19T04:00:50;16.53;;;15.67;;
1957;SDS011;979;51.076;13.748;2022-07-19T04:03:19;15.20;;;14.60;;
1957;SDS011;979;51.076;13.748;2022-07-19T04:05:48;16.00;;;15.23;;
1957;SDS011;979;51.076;13.748;2022-07-19T04:08:16;17.03;;;15.93;;
1957;SDS011;979;51.076;13.748;2022-07-19T04:10:46;16.40;;;15.43;;
1957;SDS011;979;51.076;13.748;2022-07-19T04:13:14;16.77;;;15.83;;
1957;SDS011;979;51.076;13.748;2022-07-19T04:15:44;17.10;;;16.03;;
1957;SDS011;979;51.076;13.748;2022-07-19T04:18:13;16.60;;;15.93;;
1957;SDS011;979;51.076;13.748;2022-07-19T04:20:41;17.17;;;15.97;;
1957;SDS011;979;51.076;13.748;2022-07-19T04:23:09;16.63;;;15.60;;
1957;SDS011;979;51.076;13.748;2022-07-19T04:25:38;16.37;;;15.50;;
1957;SDS011;979;51.076;13.748;2022-07-19T04:28:06;16.13;;;15.33;;
1957;SDS011;979;51.076;13.748;2022-07-19T04:30:34;15.60;;;15.00;;
1957;SDS011;979;51.076;13.748;2022-07-19T04:33:04;15.63;;;15.07;;
1957;SDS011;979;51.076;13.748;2022-07-19T04:35:32;15.07;;;14.27;;
1957;SDS011;979;51.076;13.748;2022-07-19T04:38:00;16.17;;;15.40;;
1957;SDS011;979;51.076;13.748;2022-07-19T04:40:29;16.90;;;16.20;;
1957;SDS011;979;51.076;13.748;2022-07-19T04:42:57;17.07;;;16.23;;
1957;SDS011;979;51.076;13.748;2022-07-19T04:45:25;16.37;;;15.77;;
1957;SDS011;979;51.076;13.748;2022-07-19T04:47:54;16.80;;;16.00;;
1957;SDS011;979;51.076;13.748;2022-07-19T04:50:24;16.20;;;15.40;;
1957;SDS011;979;51.076;13.748;2022-07-19T04:52:52;16.30;;;15.50;;
1957;SDS011;979;51.076;13.748;2022-07-19T04:55:20;15.83;;;15.23;;
1957;SDS011;979;51.076;13.748;2022-07-19T04:57:49;17.00;;;16.10;;
1957;SDS011;979;51.076;13.748;2022-07-19T05:00:17;16.13;;;15.40;;
1957;SDS011;979;51.076;13.748;2022-07-19T05:02:46;16.10;;;15.30;;
1957;SDS011;979;51.076;13.748;2022-07-19T05:05:14;15.70;;;15.20;;
1957;SDS011;979;51.076;13.748;2022-07-19T05:07:44;16.63;;;16.00;;
1957;SDS011;979;51.076;13.748;2022-07-19T05:10:12;16.40;;;15.70;;
1957;SDS011;979;51.076;13.748;2022-07-19T05:12:43;16.90;;;16.07;;
1957;SDS011;979;51.076;13.748;2022-07-19T05:15:19;16.43;;;15.63;;
1957;SDS011;979;51.076;13.748;2022-07-19T05:17:47;17.30;;;16.20;;
1957;SDS011;979;51.076;13.748;2022-07-19T05:20:16;18.63;;;17.20;;
1957;SDS011;979;51.076;13.748;2022-07-19T05:22:48;15.37;;;14.87;;
1957;SDS011;979;51.076;13.748;2022-07-19T05:25:17;15.93;;;15.33;;
1957;SDS011;979;51.076;13.748;2022-07-19T05:27:45;16.50;;;15.90;;
1957;SDS011;979;51.076;13.748;2022-07-19T05:30:19;16.13;;;15.53;;
1957;SDS011;979;51.076;13.748;2022-07-19T05:32:48;17.30;;;16.50;;
1957;SDS011;979;51.076;13.748;2022-07-19T05:35:18;16.93;;;16.17;;
1957;SDS011;979;51.076;13.748;2022-07-19T05:38:06;17.20;;;16.23;;
1957;SDS011;979;51.076;13.748;2022-07-19T05:40:37;16.67;;;15.87;;
1957;SDS011;979;51.076;13.748;2022-07-19T05:43:07;16.67;;;15.90;;
1957;SDS011;979;51.076;13.748;2022-07-19T05:45:37;16.80;;;16.00;;
1957;SDS011;979;51.076;13.748;2022-07-19T05:48:18;16.67;;;15.97;;
1957;SDS011;979;51.076;13.748;2022-07-19T05:50:46;16.77;;;16.07;;
1957;SDS011;979;51.076;13.748;2022-07-19T05:53:16;17.40;;;16.40;;
1957;SDS011;979;51.076;13.748;2022-07-19T05:55:47;17.93;;;16.53;;
1957;SDS011;979;51.076;13.748;2022-07-19T05:58:15;17.73;;;16.73;;
1957;SDS011;979;51.076;13.748;2022-07-19T06:00:47;16.53;;;15.83;;
1957;SDS011;979;51.076;13.748;2022-07-19T06:03:39;17.00;;;16.30;;
1957;SDS011;979;51.076;13.748;2022-07-19T06:06:21;16.40;;;15.60;;
1957;SDS011;979;51.076;13.748;2022-07-19T06:47:56;17.60;;;16.60;;
1957;SDS011;979;51.076;13.748;2022-07-19T06:50:25;16.80;;;16.07;;
1957;SDS011;979;51.076;13.748;2022-07-19T06:53:09;16.77;;;16.10;;
1957;SDS011;979;51.076;13.748;2022-07-19T06:55:38;16.90;;;16.10;;
1957;SDS011;979;51.076;13.748;2022-07-19T06:58:08;16.30;;;15.60;;
1957;SDS011;979;51.076;13.748;2022-07-19T07:00:39;17.13;;;16.33;;
1957;SDS011;979;51.076;13.748;2022-07-19T07:03:16;18.27;;;17.50;;
1957;SDS011;979;51.076;13.748;2022-07-19T07:05:45;16.80;;;16.03;;
1957;SDS011;979;51.076;13.748;2022-07-19T07:08:17;17.83;;;16.93;;
1957;SDS011;979;51.076;13.748;2022-07-19T07:10:45;17.60;;;16.67;;
1957;SDS011;979;51.076;13.748;2022-07-19T07:13:14;16.43;;;15.80;;
1957;SDS011;979;51.076;13.748;2022-07-19T07:15:43;16.57;;;15.70;;
1957;SDS011;979;51.076;13.748;2022-07-19T07:18:14;16.87;;;16.17;;
1957;SDS011;979;51.076;13.748;2022-07-19T07:20:45;16.30;;;15.70;;
1957;SDS011;979;51.076;13.748;2022-07-19T07:23:14;17.70;;;16.80;;
1957;SDS011;979;51.076;13.748;2022-07-19T07:25:46;16.40;;;15.53;;
1957;SDS011;979;51.076;13.748;2022-07-19T07:28:20;17.93;;;17.03;;
1957;SDS011;979;51.076;13.748;2022-07-19T07:30:52;18.10;;;17.10;;
1957;SDS011;979;51.076;13.748;2022-07-19T07:33:35;18.13;;;16.90;;
1957;SDS011;979;51.076;13.748;2022-07-19T07:36:04;17.70;;;16.90;;
1957;SDS011;979;51.076;13.748;2022-07-19T07:38:36;17.23;;;16.50;;
1957;SDS011;979;51.076;13.748;2022-07-19T07:41:15;16.30;;;15.70;;
1957;SDS011;979;51.076;13.748;2022-07-19T07:44:04;16.87;;;15.90;;
1957;SDS011;979;51.076;13.748;2022-07-19T07:46:34;16.73;;;16.13;;
1957;SDS011;979;51.076;13.748;2022-07-19T07:49:09;17.90;;;16.80;;
1957;SDS011;979;51.076;13.748;2022-07-19T07:51:37;16.40;;;15.80;;
1957;SDS011;979;51.076;13.748;2022-07-19T07:54:11;16.50;;;15.80;;
1957;SDS011;979;51.076;13.748;2022-07-19T07:56:40;17.37;;;16.53;;
1957;SDS011;979;51.076;13.748;2022-07-19T07:59:12;16.00;;;15.50;;
1957;SDS011;979;51.076;13.748;2022-07-19T08:01:41;17.87;;;17.07;;
1957;SDS011;979;51.076;13.748;2022-07-19T08:04:12;17.23;;;16.60;;
1957;SDS011;979;51.076;13.748;2022-07-19T08:06:41;15.60;;;14.80;;
1957;SDS011;979;51.076;13.748;2022-07-19T08:09:10;16.70;;;15.90;;
1957;SDS011;979;51.076;13.748;2022-07-19T08:11:40;17.50;;;16.60;;
1957;SDS011;979;51.076;13.748;2022-07-19T08:14:09;16.43;;;15.83;;
1957;SDS011;979;51.076;13.748;2022-07-19T08:16:38;16.40;;;15.80;;
1957;SDS011;979;51.076;13.748;2022-07-19T09:29:34;16.67;;;15.87;;
1957;SDS011;979;51.076;13.748;2022-07-19T09:32:18;16.13;;;15.43;;
1957;SDS011;979;51.076;13.748;2022-07-19T09:35:18;17.10;;;16.30;;
1957;SDS011;979;51.076;13.748;2022-07-19T09:38:25;17.87;;;16.87;;
1957;SDS011;979;51.076;13.748;2022-07-19T09:41:25;18.20;;;17.30;;
1957;SDS011;979;51.076;13.748;2022-07-19T09:44:27;20.47;;;19.47;;
1957;SDS011;979;51.076;13.748;2022-07-19T10:14:59;17.60;;;16.90;;
1957;SDS011;979;51.076;13.748;2022-07-19T10:17:46;17.20;;;16.60;;
1957;SDS011;979;51.076;13.748;2022-07-19T10:20:35;17.87;;;17.07;;
1957;SDS011;979;51.076;13.748;2022-07-19T10:23:06;17.37;;;16.67;;
1957;SDS011;979;51.076;13.748;2022-07-19T10:25:39;16.47;;;15.90;;
1957;SDS011;979;51.076;13.748;2022-07-19T10:29:14;16.27;;;15.60;;
1957;SDS011;979;51.076;13.748;2022-07-19T10:32:03;17.27;;;16.27;;
1957;SDS011;979;51.076;13.748;2022-07-19T10:35:13;16.23;;;15.63;;
1957;SDS011;979;51.076;13.748;2022-07-19T10:42:09;17.03;;;16.37;;
1957;SDS011;979;51.076;13.748;2022-07-19T14:43:33;16.70;;;16.00;;
1957;SDS011;979;51.076;13.748;2022-07-19T14:46:05;16.80;;;16.00;;
1957;SDS011;979;51.076;13.748;2022-07-19T14:48:35;16.25;;;15.65;;
1957;SDS011;979;51.076;13.748;2022-07-19T14:51:14;16.10;;;15.60;;
1957;SDS011;979;51.076;13.748;2022-07-19T14:53:43;16.65;;;15.95;;
1957;SDS011;979;51.076;13.748;2022-07-19T14:56:13;17.27;;;16.58;;
1957;SDS011;979;51.076;13.748;2022-07-19T14:58:51;17.40;;;16.85;;
1957;SDS011;979;51.076;13.748;2022-07-19T15:01:20;17.85;;;17.15;;
1957;SDS011;979;51.076;13.748;2022-07-19T15:03:51;17.60;;;16.70;;
1957;SDS011;979;51.076;13.748;2022-07-19T15:06:20;15.70;;;15.13;;
1957;SDS011;979;51.076;13.748;2022-07-19T15:08:52;16.40;;;15.77;;
1957;SDS011;979;51.076;13.748;2022-07-19T15:11:20;17.15;;;16.45;;
1957;SDS011;979;51.076;13.748;2022-07-19T15:13:54;15.50;;;14.90;;
1957;SDS011;979;51.076;13.748;2022-07-19T15:16:28;16.50;;;15.90;;
1957;SDS011;979;51.076;13.748;2022-07-19T15:19:02;17.05;;;16.35;;
1957;SDS011;979;51.076;13.748;2022-07-19T15:21:31;17.08;;;16.38;;
1957;SDS011;979;51.076;13.748;2022-07-19T15:24:06;16.90;;;15.95;;
1957;SDS011;979;51.076;13.748;2022-07-19T15:26:35;16.25;;;15.65;;
1957;SDS011;979;51.076;13.748;2022-07-19T15:29:11;17.20;;;16.50;;
1957;SDS011;979;51.076;13.748;2022-07-19T15:31:40;16.02;;;15.38;;
1957;SDS011;979;51.076;13.748;2022-07-19T15:34:12;16.08;;;15.25;;
1957;SDS011;979;51.076;13.748;2022-07-19T15:36:41;16.08;;;15.57;;
1957;SDS011;979;51.076;13.748;2022-07-19T15:39:23;15.68;;;15.07;;
1957;SDS011;979;51.076;13.748;2022-07-19T15:41:52;16.40;;;15.60;;
1957;SDS011;979;51.076;13.748;2022-07-19T15:44:24;16.98;;;16.27;;
1957;SDS011;979;51.076;13.748;2022-07-19T15:46:53;16.27;;;15.75;;
1957;SDS011;979;51.076;13.748;2022-07-19T15:49:25;16.02;;;15.43;;
1957;SDS011;979;51.076;13.748;2022-07-19T15:52:00;16.77;;;16.13;;
1957;SDS011;979;51.076;13.748;2022-07-19T15:54:29;16.30;;;15.80;;
1957;SDS011;979;51.076;13.748;2022-07-19T15:57:00;16.60;;;16.00;;
1957;SDS011;979;51.076;13.748;2022-07-19T15:59:44;16.10;;;15.60;;
1957;SDS011;979;51.076;13.748;2022-07-19T16:02:27;16.25;;;15.73;;
1957;SDS011;979;51.076;13.748;2022-07-19T16:05:09;16.17;;;15.52;;
1957;SDS011;979;51.076;13.748;2022-07-19T16:08:06;16.90;;;16.17;;
1957;SDS011;979;51.076;13.748;2022-07-19T16:10:44;16.48;;;15.70;;
1957;SDS011;979;51.076;13.748;2022-07-19T16:13:45;15.98;;;15.48;;
1957;SDS011;979;51.076;13.748;2022-07-19T16:19:17;16.40;;;15.80;;
1957;SDS011;979;51.076;13.748;2022-07-19T16:21:51;16.02;;;15.40;;
1957;SDS011;979;51.076;13.748;2022-07-19T16:24:32;16.27;;;15.68;;
1957;SDS011;979;51.076;13.748;2022-07-19T16:30:18;16.65;;;15.88;;
1957;SDS011;979;51.076;13.748;2022-07-19T16:33:34;16.42;;;15.80;;
1957;SDS011;979;51.076;13.748;2022-07-19T16:36:33;15.20;;;14.50;;
1957;SDS011;979;51.076;13.748;2022-07-19T16:39:28;16.60;;;15.70;;
1957;SDS011;979;51.076;13.748;2022-07-19T16:42:42;17.55;;;16.75;;
1957;SDS011;979;51.076;13.748;2022-07-19T16:45:46;19.70;;;18.70;;
1957;SDS011;979;51.076;13.748;2022-07-19T16:48:49;16.30;;;15.70;;
1957;SDS011;979;51.076;13.748;2022-07-19T16:51:59;16.17;;;15.57;;
1957;SDS011;979;51.076;13.748;2022-07-19T16:54:44;16.40;;;15.50;;
1957;SDS011;979;51.076;13.748;2022-07-19T16:57:20;17.33;;;16.63;;
1957;SDS011;979;51.076;13.748;2022-07-19T16:59:56;16.45;;;15.60;;
1957;SDS011;979;51.076;13.748;2022-07-19T17:02:57;16.80;;;16.02;;
1957;SDS011;979;51.076;13.748;2022-07-19T17:05:37;15.77;;;15.07;;
1957;SDS011;979;51.076;13.748;2022-07-19T17:08:23;16.90;;;16.00;;
1957;SDS011;979;51.076;13.748;2022-07-19T17:11:03;17.38;;;16.63;;
1957;SDS011;979;51.076;13.748;2022-07-19T17:13:41;16.92;;;16.05;;
1957;SDS011;979;51.076;13.748;2022-07-19T17:16:34;16.73;;;15.93;;
1957;SDS011;979;51.076;13.748;2022-07-19T17:19:40;16.85;;;15.93;;
1957;SDS011;979;51.076;13.748;2022-07-19T17:22:12;14.77;;;14.27;;
1957;SDS011;979;51.076;13.748;2022-07-19T17:25:05;16.47;;;15.60;;
1957;SDS011;979;51.076;13.748;2022-07-19T17:27:58;16.23;;;15.70;;
1957;SDS011;979;51.076;13.748;2022-07-19T17:30:39;16.73;;;16.13;;
1957;SDS011;979;51.076;13.748;2022-07-19T17:33:18;16.90;;;16.30;;
1957;SDS011;979;51.076;13.748;2022-07-19T17:35:57;16.73;;;16.10;;
1957;SDS011;979;51.076;13.748;2022-07-19T17:38:34;15.90;;;15.37;;
1957;SDS011;979;51.076;13.748;2022-07-19T17:41:35;15.37;;;14.77;;
1957;SDS011;979;51.076;13.748;2022-07-19T17:53:33;16.90;;;16.20;;
1957;SDS011;979;51.076;13.748;2022-07-19T17:56:24;17.57;;;16.67;;
1957;SDS011;979;51.076;13.748;2022-07-19T17:58:59;16.50;;;15.90;;
1957;SDS011;979;51.076;13.748;2022-07-19T18:01:52;15.37;;;14.80;;
1957;SDS011;979;51.076;13.748;2022-07-19T18:04:58;17.87;;;17.17;;
1957;SDS011;979;51.076;13.748;2022-07-19T18:07:30;17.60;;;16.90;;
1957;SDS011;979;51.076;13.748;2022-07-19T18:10:07;18.60;;;17.90;;
1957;SDS011;979;51.076;13.748;2022-07-19T18:13:06;19.17;;;18.23;;
1957;SDS011;979;51.076;13.748;2022-07-19T18:15:39;18.83;;;17.97;;
1957;SDS011;979;51.076;13.748;2022-07-19T18:18:39;19.50;;;18.30;;
1957;SDS011;979;51.076;13.748;2022-07-19T18:21:19;19.03;;;18.07;;
1957;SDS011;979;51.076;13.748;2022-07-19T18:23:53;19.17;;;18.20;;
1957;SDS011;979;51.076;13.748;2022-07-19T18:26:37;19.07;;;18.07;;
1957;SDS011;979;51.076;13.748;2022-07-19T18:29:15;19.60;;;18.60;;
1957;SDS011;979;51.076;13.748;2022-07-19T18:34:44;19.80;;;18.50;;
1957;SDS011;979;51.076;13.748;2022-07-19T18:36:14;20.07;;;19.07;;
1957;SDS011;979;51.076;13.748;2022-07-19T18:39:21;20.40;;;19.27;;
1957;SDS011;979;51.076;13.748;2022-07-19T18:42:15;21.27;;;20.00;;
1957;SDS011;979;51.076;13.748;2022-07-19T18:45:43;20.50;;;19.50;;
1957;SDS011;979;51.076;13.748;2022-07-19T18:48:53;20.67;;;19.70;;
1957;SDS011;979;51.076;13.748;2022-07-19T18:52:19;20.00;;;19.00;;
1957;SDS011;979;51.076;13.748;2022-07-19T18:54:48;19.33;;;18.53;;
1957;SDS011;979;51.076;13.748;2022-07-19T18:57:56;19.77;;;18.67;;
1957;SDS011;979;51.076;13.748;2022-07-19T19:00:32;18.80;;;17.73;;
1957;SDS011;979;51.076;13.748;2022-07-19T19:03:23;20.27;;;19.10;;
1957;SDS011;979;51.076;13.748;2022-07-19T19:06:21;20.40;;;19.10;;
1957;SDS011;979;51.076;13.748;2022-07-19T19:09:03;18.33;;;17.40;;
1957;SDS011;979;51.076;13.748;2022-07-19T19:11:49;19.93;;;18.73;;
1957;SDS011;979;51.076;13.748;2022-07-19T19:27:42;18.70;;;17.63;;
1957;SDS011;979;51.076;13.748;2022-07-19T19:30:25;17.70;;;16.90;;
1957;SDS011;979;51.076;13.748;2022-07-19T19:32:56;18.57;;;17.33;;
1957;SDS011;979;51.076;13.748;2022-07-19T19:36:06;17.87;;;17.07;;
1957;SDS011;979;51.076;13.748;2022-07-19T19:38:56;17.70;;;16.90;;
1957;SDS011;979;51.076;13.748;2022-07-19T19:41:38;19.93;;;18.83;;
1957;SDS011;979;51.076;13.748;2022-07-19T19:44:43;18.83;;;17.93;;
1957;SDS011;979;51.076;13.748;2022-07-19T19:50:47;18.80;;;17.80;;
1957;SDS011;979;51.076;13.748;2022-07-19T19:53:29;18.83;;;17.83;;
1957;SDS011;979;51.076;13.748;2022-07-19T19:56:08;18.47;;;17.30;;
1957;SDS011;979;51.076;13.748;2022-07-19T20:02:12;18.70;;;17.80;;
1957;SDS011;979;51.076;13.748;2022-07-19T20:04:49;18.90;;;18.00;;
1957;SDS011;979;51.076;13.748;2022-07-19T20:07:40;19.50;;;18.40;;
1957;SDS011;979;51.076;13.748;2022-07-19T20:10:48;18.30;;;17.13;;
1957;SDS011;979;51.076;13.748;2022-07-19T20:13:36;19.33;;;17.90;;
1957;SDS011;979;51.076;13.748;2022-07-19T20:16:17;17.20;;;16.50;;
1957;SDS011;979;51.076;13.748;2022-07-19T20:19:19;17.80;;;16.93;;
1957;SDS011;979;51.076;13.748;2022-07-19T20:22:01;18.50;;;17.50;;
1957;SDS011;979;51.076;13.748;2022-07-19T20:24:39;18.00;;;16.93;;
1957;SDS011;979;51.076;13.748;2022-07-19T20:27:37;17.87;;;16.90;;
1957;SDS011;979;51.076;13.748;2022-07-19T20:30:25;18.03;;;17.13;;
1957;SDS011;979;51.076;13.748;2022-07-19T20:33:08;17.73;;;16.83;;
1957;SDS011;979;51.076;13.748;2022-07-19T20:35:50;18.73;;;17.70;;
1957;SDS011;979;51.076;13.748;2022-07-19T20:38:27;17.60;;;16.80;;
1957;SDS011;979;51.076;13.748;2022-07-19T20:41:06;18.13;;;17.30;;
1957;SDS011;979;51.076;13.748;2022-07-19T20:43:46;19.00;;;17.90;;
1957;SDS011;979;51.076;13.748;2022-07-19T20:50:06;21.27;;;19.20;;
1957;SDS011;979;51.076;13.748;2022-07-19T20:52:50;18.43;;;17.73;;
1957;SDS011;979;51.076;13.748;2022-07-19T20:58:59;19.03;;;18.17;;
1957;SDS011;979;51.076;13.748;2022-07-19T21:02:03;18.40;;;17.60;;
1957;SDS011;979;51.076;13.748;2022-07-19T21:04:44;19.03;;;17.83;;
1957;SDS011;979;51.076;13.748;2022-07-19T21:07:37;19.60;;;18.80;;
1957;SDS011;979;51.076;13.748;2022-07-19T21:10:36;20.13;;;18.83;;
1957;SDS011;979;51.076;13.748;2022-07-19T21:13:15;18.60;;;17.40;;
1957;SDS011;979;51.076;13.748;2022-07-19T21:16:35;17.10;;;16.40;;
1957;SDS011;979;51.076;13.748;2022-07-19T21:19:31;19.30;;;18.23;;
1957;SDS011;979;51.076;13.748;2022-07-19T21:22:16;18.90;;;18.00;;
1957;SDS011;979;51.076;13.748;2022-07-19T21:25:07;18.57;;;17.70;;
1957;SDS011;979;51.076;13.748;2022-07-19T21:28:02;18.00;;;17.20;;
1957;SDS011;979;51.076;13.748;2022-07-19T21:30:38;18.80;;;17.80;;
1957;SDS011;979;51.076;13.748;2022-07-19T21:33:24;19.23;;;18.23;;
1957;SDS011;979;51.076;13.748;2022-07-19T21:36:10;17.50;;;16.80;;
1957;SDS011;979;51.076;13.748;2022-07-19T21:39:08;18.13;;;17.33;;
1957;SDS011;979;51.076;13.748;2022-07-19T21:41:52;19.60;;;18.40;;
1957;SDS011;979;51.076;13.748;2022-07-19T21:44:32;18.10;;;17.30;;
1957;SDS011;979;51.076;13.748;2022-07-19T21:47:23;16.40;;;15.80;;
1957;SDS011;979;51.076;13.748;2022-07-19T21:50:07;18.77;;;17.67;;
1957;SDS011;979;51.076;13.748;2022-07-19T21:52:38;18.67;;;17.77;;
1957;SDS011;979;51.076;13.748;2022-07-19T21:55:27;18.67;;;17.77;;
1957;SDS011;979;51.076;13.748;2022-07-19T21:58:08;17.90;;;17.10;;
1957;SDS011;979;51.076;13.748;2022-07-19T22:00:46;18.50;;;17.50;;
1957;SDS011;979;51.076;13.748;2022-07-19T22:03:54;17.60;;;16.80;;
1957;SDS011;979;51.076;13.748;2022-07-19T22:06:32;18.00;;;17.10;;
1957;SDS011;979;51.076;13.748;2022-07-19T22:09:14;18.83;;;17.83;;
1957;SDS011;979;51.076;13.748;2022-07-19T22:11:57;17.67;;;16.87;;
1957;SDS011;979;51.076;13.748;2022-07-19T22:14:35;17.43;;;16.60;;
1957;SDS011;979;51.076;13.748;2022-07-19T22:17:21;19.10;;;17.73;;
1957;SDS011;979;51.076;13.748;2022-07-19T22:19:59;19.47;;;18.33;;
1957;SDS011;979;51.076;13.748;2022-07-19T22:22:31;18.90;;;17.80;;
1957;SDS011;979;51.076;13.748;2022-07-19T22:25:32;18.47;;;17.47;;
1957;SDS011;979;51.076;13.748;2022-07-19T22:28:07;18.20;;;17.30;;
1957;SDS011;979;51.076;13.748;2022-07-19T22:30:44;18.20;;;17.30;;
1957;SDS011;979;51.076;13.748;2022-07-19T22:33:50;18.63;;;17.60;;
1957;SDS011;979;51.076;13.748;2022-07-19T22:36:36;19.07;;;17.97;;
1957;SDS011;979;51.076;13.748;2022-07-19T22:42:07;18.50;;;17.60;;
1957;SDS011;979;51.076;13.748;2022-07-19T22:45:02;18.30;;;17.40;;
1957;SDS011;979;51.076;13.748;2022-07-19T22:47:35;19.00;;;17.80;;
1957;SDS011;979;51.076;13.748;2022-07-19T22:50:21;18.80;;;17.80;;
1957;SDS011;979;51.076;13.748;2022-07-19T22:54:12;18.30;;;17.40;;
1957;SDS011;979;51.076;13.748;2022-07-19T22:57:00;18.90;;;18.07;;
1957;SDS011;979;51.076;13.748;2022-07-19T22:59:43;18.50;;;17.30;;
1957;SDS011;979;51.076;13.748;2022-07-19T23:05:30;19.70;;;18.60;;